Time;durP1;ratioP1;P1;durP2;ratioP2;P2;SDS_P1;SDS_P2;PMS_P1;PMS_P2;Temp;Humidity;BMP_temperature;BMP_pressure;BME280_temperature;BME280_humidity;BME280_pressure;Samples;Min_cycle;Max_cycle;Signal;HPM_P1;HPM_P2
2022/12/14 00:02:09;;;;;;;9.80;4.73;;;;;;;-3.05;98.66;95033.81;5059158;28;20203;-71
2022/12/14 00:04:35;;;;;;;11.73;5.50;;;;;;;-3.01;98.19;95036.81;5058126;28;20208;-71
2022/12/14 00:07:02;;;;;;;10.43;4.80;;;;;;;-2.99;98.41;95031.56;5058873;28;20230;-71
2022/12/14 00:09:28;;;;;;;11.10;5.30;;;;;;;-3.04;98.29;95017.41;5058221;28;20236;-71
2022/12/14 00:11:56;;;;;;;10.93;5.80;;;;;;;-3.03;98.51;95014.72;5058706;28;20218;-71
2022/12/14 00:14:23;;;;;;;18.20;6.53;;;;;;;-3.08;98.37;95027.19;5059049;28;20211;-72
2022/12/14 00:16:49;;;;;;;15.27;6.87;;;;;;;-3.21;98.87;95023.94;5058522;28;20224;-71
2022/12/14 00:19:16;;;;;;;16.30;7.17;;;;;;;-3.34;100.00;95035.38;5058035;28;20296;-72
2022/12/14 00:21:42;;;;;;;14.37;5.73;;;;;;;-3.34;99.72;95036.19;5059135;28;20206;-72
2022/12/14 00:24:09;;;;;;;11.10;4.67;;;;;;;-3.43;100.00;95029.19;5057614;28;20567;-71
2022/12/14 00:26:35;;;;;;;21.37;7.17;;;;;;;-3.26;100.00;95031.25;5058196;28;20231;-72
2022/12/14 00:29:03;;;;;;;15.53;6.23;;;;;;;-3.10;99.35;95018.75;5058795;28;20252;-72
2022/12/14 00:31:30;;;;;;;16.43;6.70;;;;;;;-3.10;99.71;95018.75;5059084;28;20204;-72
2022/12/14 00:33:57;;;;;;;13.20;6.07;;;;;;;-3.03;99.76;95019.06;5057738;28;20237;-72
2022/12/14 00:36:24;;;;;;;15.90;6.00;;;;;;;-3.04;99.09;95015.66;5058446;28;20210;-71
2022/12/14 00:38:50;;;;;;;12.33;6.10;;;;;;;-3.06;98.93;95014.97;5058193;28;20211;-72
2022/12/14 00:41:17;;;;;;;15.20;5.77;;;;;;;-2.95;98.69;95012.34;5058421;28;20210;-71
2022/12/14 00:43:43;;;;;;;14.67;6.00;;;;;;;-3.13;98.63;95019.00;5057868;28;20206;-71
2022/12/14 00:46:11;;;;;;;13.60;5.77;;;;;;;-2.99;98.61;95016.91;5058125;28;20221;-72
2022/12/14 00:48:37;;;;;;;15.07;5.60;;;;;;;-3.20;98.62;95011.91;5058049;28;21195;-72
2022/12/14 00:51:04;;;;;;;16.13;6.13;;;;;;;-3.20;98.72;95006.75;5058363;28;20218;-71
2022/12/14 00:53:31;;;;;;;12.17;5.90;;;;;;;-3.21;99.26;95003.34;5057668;28;20197;-71
2022/12/14 00:56:05;;;;;;;14.77;6.90;;;;;;;-3.09;99.82;95004.94;5057829;28;20217;-70
2022/12/14 00:58:31;;;;;;;14.37;6.33;;;;;;;-3.05;98.88;95005.47;5057800;28;20218;-71
2022/12/14 01:01:00;;;;;;;14.17;6.77;;;;;;;-2.96;98.87;95005.53;5058411;28;20214;-72
2022/12/14 01:03:28;;;;;;;16.30;6.27;;;;;;;-2.99;99.11;95003.22;5057697;28;20206;-71
2022/12/14 01:05:54;;;;;;;11.03;5.50;;;;;;;-3.01;98.44;94976.75;5057773;28;20216;-71
2022/12/14 01:08:21;;;;;;;13.17;5.97;;;;;;;-3.19;99.14;94983.44;5057545;28;20603;-71
2022/12/14 01:10:47;;;;;;;12.83;5.73;;;;;;;-3.14;98.69;94986.44;5057845;28;20228;-71
2022/12/14 01:13:14;;;;;;;13.77;5.43;;;;;;;-3.12;98.72;94994.84;5057760;28;20220;-70
2022/12/14 01:15:41;;;;;;;24.63;6.57;;;;;;;-3.17;99.28;94983.31;5057663;28;20215;-72
2022/12/14 01:18:07;;;;;;;11.03;6.07;;;;;;;-3.20;99.55;94989.53;5057407;28;20228;-72
2022/12/14 01:20:35;;;;;;;12.83;5.63;;;;;;;-3.14;99.99;94991.59;5057602;28;20918;-70
2022/12/14 01:23:01;;;;;;;12.60;6.03;;;;;;;-3.26;99.74;94990.03;5057560;28;20209;-71
2022/12/14 01:25:28;;;;;;;14.90;6.50;;;;;;;-3.18;99.91;94985.06;5056886;28;20674;-73
2022/12/14 01:27:54;;;;;;;11.70;4.67;;;;;;;-3.15;98.90;94971.94;5057639;28;20228;-71
2022/12/14 01:30:21;;;;;;;14.13;6.30;;;;;;;-3.09;100.00;94979.16;5057115;28;20637;-70
2022/12/14 01:32:47;;;;;;;11.70;5.53;;;;;;;-3.03;99.33;94987.19;5057401;28;20574;-72
2022/12/14 01:35:14;;;;;;;12.23;7.23;;;;;;;-3.13;99.67;94988.09;5056410;28;20215;-70
2022/12/14 01:37:42;;;;;;;17.93;7.20;;;;;;;-3.01;99.65;94989.66;5057084;28;20226;-71
2022/12/14 01:40:09;;;;;;;11.23;5.77;;;;;;;-2.99;100.00;94991.16;5057481;28;20215;-71
2022/12/14 01:42:36;;;;;;;11.33;6.03;;;;;;;-2.94;99.41;94999.31;5057422;28;20229;-71
2022/12/14 01:45:05;;;;;;;10.87;5.30;;;;;;;-2.84;99.15;94994.22;5056530;28;20203;-70
2022/12/14 01:47:40;;;;;;;18.00;6.67;;;;;;;-2.90;98.80;94980.09;5056909;28;20223;-70
2022/12/14 01:50:14;;;;;;;14.83;6.93;;;;;;;-2.76;99.46;94995.22;5056560;28;20226;-72
2022/12/14 01:52:45;;;;;;;11.23;5.43;;;;;;;-2.78;99.38;94996.28;5057060;28;20213;-71
2022/12/14 01:55:16;;;;;;;18.50;7.37;;;;;;;-2.67;99.18;94983.31;5056555;28;20258;-71
2022/12/14 01:57:48;;;;;;;13.87;6.57;;;;;;;-2.67;97.98;94991.03;5056391;28;20231;-71
2022/12/14 02:00:16;;;;;;;14.83;6.30;;;;;;;-2.67;98.34;94980.72;5056697;28;20198;-71
2022/12/14 02:02:48;;;;;;;12.50;6.77;;;;;;;-2.59;97.75;94965.47;5056879;28;20213;-72
2022/12/14 02:05:18;;;;;;;15.10;6.70;;;;;;;-2.75;97.90;94960.78;5055980;28;20204;-71
2022/12/14 02:07:48;;;;;;;16.53;7.47;;;;;;;-2.65;98.33;94945.34;5056679;28;20251;-71
2022/12/14 02:10:14;;;;;;;17.33;7.17;;;;;;;-2.83;99.58;94950.28;5057146;28;20234;-71
2022/12/14 02:12:45;;;;;;;12.37;6.37;;;;;;;-2.83;99.26;94944.31;5056377;28;21057;-72
2022/12/14 02:15:13;;;;;;;15.97;7.00;;;;;;;-2.94;98.95;94952.94;5056028;28;20202;-70
2022/12/14 02:17:42;;;;;;;12.10;6.57;;;;;;;-2.99;99.66;94938.81;5057082;28;20238;-72
2022/12/14 02:20:10;;;;;;;13.83;6.87;;;;;;;-3.00;99.72;94937.19;5056594;28;20207;-71
2022/12/14 02:23:14;;;;;;;16.97;6.90;;;;;;;-2.83;97.61;94928.84;5056900;28;20210;-70
2022/12/14 02:26:00;;;;;;;12.93;5.73;;;;;;;-3.01;97.43;94944.06;5056621;28;20204;-72
2022/12/14 02:28:53;;;;;;;14.47;6.43;;;;;;;-2.98;99.09;94950.72;5056117;28;21007;-70
2022/12/14 02:31:32;;;;;;;13.73;5.97;;;;;;;-2.99;98.62;94947.34;5056203;28;20694;-71
2022/12/14 02:34:09;;;;;;;15.97;5.93;;;;;;;-2.95;98.80;94935.03;5056826;28;20211;-71
2022/12/14 02:36:42;;;;;;;22.93;7.30;;;;;;;-2.91;99.11;94916.59;5056091;28;20241;-72
2022/12/14 02:39:16;;;;;;;13.43;6.87;;;;;;;-2.91;99.45;94905.50;5056672;28;20738;-71
2022/12/14 02:41:52;;;;;;;14.93;6.87;;;;;;;-2.91;100.00;94901.16;5056492;28;20202;-71
2022/12/14 02:44:29;;;;;;;13.50;7.13;;;;;;;-2.75;100.00;94900.66;5055751;28;20214;-71
2022/12/14 02:47:01;;;;;;;14.80;5.73;;;;;;;-2.84;100.00;94904.03;5056814;28;20226;-71
2022/12/14 02:49:47;;;;;;;12.97;6.57;;;;;;;-2.84;100.00;94899.69;5056438;28;20229;-71
2022/12/14 02:52:20;;;;;;;15.67;6.73;;;;;;;-2.79;100.00;94907.03;5056447;28;20207;-72
2022/12/14 02:54:53;;;;;;;17.07;7.67;;;;;;;-2.98;99.49;94920.66;5056142;28;20211;-71
2022/12/14 02:57:25;;;;;;;16.77;7.20;;;;;;;-2.87;98.17;94922.31;5056589;28;20222;-71
2022/12/14 02:59:55;;;;;;;12.63;7.37;;;;;;;-2.83;98.80;94916.78;5055786;28;20199;-72
2022/12/14 03:02:23;;;;;;;12.63;6.33;;;;;;;-2.76;99.08;94911.91;5056161;28;20211;-71
2022/12/14 03:04:51;;;;;;;14.37;6.03;;;;;;;-2.86;98.46;94908.50;5055567;28;20257;-71
2022/12/14 03:07:35;;;;;;;15.20;5.93;;;;;;;-2.64;98.94;94914.28;5056579;28;20235;-71
2022/12/14 03:10:08;;;;;;;11.00;5.77;;;;;;;-2.82;98.89;94915.81;5055758;28;20241;-72
2022/12/14 03:12:38;;;;;;;17.50;7.40;;;;;;;-2.76;99.01;94909.34;5056263;28;20216;-71
2022/12/14 03:15:08;;;;;;;22.67;6.83;;;;;;;-2.65;98.97;94917.78;5054998;28;20211;-71
2022/12/14 03:17:38;;;;;;;21.87;7.67;;;;;;;-2.63;98.77;94900.44;5056409;28;20309;-70
2022/12/14 03:20:11;;;;;;;20.87;8.23;;;;;;;-2.90;100.00;94901.97;5055835;28;20212;-72
2022/12/14 03:22:41;;;;;;;18.07;5.73;;;;;;;-2.82;100.00;94912.44;5056086;28;20236;-72
2022/12/14 03:25:13;;;;;;;15.37;7.53;;;;;;;-2.95;100.00;94904.13;5055010;28;20207;-71
2022/12/14 03:27:45;;;;;;;13.60;6.23;;;;;;;-2.89;100.00;94906.16;5056128;28;20254;-71
2022/12/14 03:30:14;;;;;;;14.37;7.80;;;;;;;-2.89;100.00;94909.56;5056164;28;20236;-70
2022/12/14 03:32:47;;;;;;;17.43;6.67;;;;;;;-2.87;100.00;94912.81;5055794;28;20671;-71
2022/12/14 03:35:18;;;;;;;15.00;7.00;;;;;;;-2.76;100.00;94915.31;5055665;28;20213;-71
2022/12/14 03:37:49;;;;;;;15.20;6.87;;;;;;;-2.68;100.00;94899.22;5057024;28;20262;-70
2022/12/14 03:40:16;;;;;;;23.90;7.77;;;;;;;-2.72;100.00;94890.91;5053796;28;20226;-72
2022/12/14 03:42:55;;;;;;;21.53;8.70;;;;;;;-2.72;100.00;94874.66;5058035;28;20660;-72
2022/12/14 03:45:26;;;;;;;9.87;5.97;;;;;;;-2.76;100.00;94874.09;5059436;28;20205;-70
2022/12/14 03:48:07;;;;;;;20.03;7.20;;;;;;;-2.72;100.00;94875.44;5059426;28;20226;-72
2022/12/14 03:50:41;;;;;;;17.30;6.87;;;;;;;-2.85;100.00;94872.28;5059406;28;20227;-71
2022/12/14 03:53:11;;;;;;;19.07;8.33;;;;;;;-2.94;100.00;94870.50;5059140;28;20213;-72
2022/12/14 03:55:43;;;;;;;18.23;7.50;;;;;;;-2.97;100.00;94869.94;5058579;28;20844;-71
2022/12/14 03:58:22;;;;;;;14.77;6.63;;;;;;;-2.96;100.00;94869.00;5059256;28;20589;-71
2022/12/14 04:00:54;;;;;;;15.20;6.43;;;;;;;-2.98;100.00;94863.16;5059720;28;20214;-71
2022/12/14 04:03:35;;;;;;;16.80;7.70;;;;;;;-2.95;100.00;94855.97;5059430;28;20202;-71
2022/12/14 04:06:05;;;;;;;18.83;4.73;;;;;;;-2.99;100.00;94867.50;5058889;28;20218;-72
2022/12/14 04:08:38;;;;;;;10.30;5.43;;;;;;;-2.92;100.00;94878.09;5058956;28;20231;-72
2022/12/14 04:19:41;;;;;;;18.67;7.23;;;;;;;-2.78;100.00;94851.97;5058920;28;20277;-70
2022/12/14 04:22:12;;;;;;;12.57;7.67;;;;;;;-2.86;100.00;94851.81;5058511;28;20209;-72
2022/12/14 04:27:35;;;;;;;10.13;5.93;;;;;;;-2.70;100.00;94836.66;5058494;28;20234;-72
2022/12/14 04:30:02;;;;;;;19.00;6.40;;;;;;;-2.74;100.00;94840.44;5058480;28;20591;-70
2022/12/14 04:32:35;;;;;;;20.10;7.10;;;;;;;-2.79;100.00;94834.88;5057439;28;20206;-71
2022/12/14 04:35:09;;;;;;;17.67;6.90;;;;;;;-2.81;100.00;94840.16;5057369;28;20203;-71
2022/12/14 04:37:39;;;;;;;14.63;6.27;;;;;;;-2.73;100.00;94839.50;5057670;28;20234;-73
2022/12/14 04:40:10;;;;;;;19.70;7.97;;;;;;;-2.70;100.00;94831.50;5058471;28;20203;-72
2022/12/14 04:42:48;;;;;;;14.67;6.77;;;;;;;-2.73;100.00;94831.78;5058077;28;21050;-71
2022/12/14 04:45:20;;;;;;;17.13;7.67;;;;;;;-2.72;100.00;94825.69;5057445;28;20213;-72
2022/12/14 04:47:56;;;;;;;20.80;8.03;;;;;;;-2.70;100.00;94823.75;5058907;28;20226;-70
2022/12/14 04:50:29;;;;;;;15.00;7.50;;;;;;;-2.58;100.00;94820.94;5057857;28;20742;-72
2022/12/14 04:53:01;;;;;;;23.43;9.10;;;;;;;-2.85;100.00;94820.75;5057583;28;20211;-70
2022/12/14 04:55:34;;;;;;;17.20;7.23;;;;;;;-2.75;100.00;94820.78;5057448;28;20209;-71
2022/12/14 04:58:05;;;;;;;24.30;8.20;;;;;;;-2.88;100.00;94802.16;5059911;28;20223;-72
2022/12/14 05:00:37;;;;;;;21.87;8.20;;;;;;;-2.98;100.00;94791.00;5057889;28;20569;-71
2022/12/14 05:03:21;;;;;;;19.47;7.13;;;;;;;-2.86;100.00;94801.09;5057138;28;20218;-71
2022/12/14 05:06:00;;;;;;;19.40;7.93;;;;;;;-2.90;100.00;94794.56;5057247;28;20258;-71
2022/12/14 05:08:51;;;;;;;16.90;8.47;;;;;;;-2.80;100.00;94804.88;5057868;28;20226;-72
2022/12/14 05:11:25;;;;;;;15.43;5.57;;;;;;;-2.79;100.00;94799.63;5055735;28;20224;-69
2022/12/14 05:13:51;;;;;;;15.23;6.93;;;;;;;-2.90;100.00;94802.28;5056910;28;20898;-71
2022/12/14 05:16:19;;;;;;;21.27;8.03;;;;;;;-2.87;100.00;94808.94;5057485;28;20570;-71
2022/12/14 05:18:46;;;;;;;23.70;7.67;;;;;;;-2.82;100.00;94802.44;5057829;28;20220;-72
2022/12/14 05:23:55;;;;;;;22.80;9.00;;;;;;;-2.73;100.00;94775.06;5056442;28;20213;-70
2022/12/14 05:26:21;;;;;;;15.90;6.73;;;;;;;-2.83;100.00;94779.38;5057917;28;20230;-73
2022/12/14 05:28:48;;;;;;;18.37;7.70;;;;;;;-2.78;100.00;94779.81;5057214;28;20217;-74
2022/12/14 05:31:14;;;;;;;23.50;9.90;;;;;;;-2.78;100.00;94782.38;5057680;28;20391;-72
2022/12/14 05:33:41;;;;;;;18.53;8.07;;;;;;;-2.72;100.00;94772.34;5056641;28;20744;-71
2022/12/14 05:36:08;;;;;;;20.07;8.87;;;;;;;-2.66;100.00;94765.84;5057597;28;20298;-72
2022/12/14 05:38:36;;;;;;;17.63;7.30;;;;;;;-2.58;100.00;94776.28;5057220;28;20250;-71
2022/12/14 05:41:03;;;;;;;14.13;8.37;;;;;;;-2.60;100.00;94760.97;5057189;28;20585;-72
2022/12/14 05:43:29;;;;;;;21.10;9.23;;;;;;;-2.63;100.00;94770.75;5057136;28;20691;-72
2022/12/14 05:45:58;;;;;;;16.07;7.97;;;;;;;-2.50;100.00;94761.00;5057121;28;20209;-72
2022/12/14 05:48:24;;;;;;;14.93;7.13;;;;;;;-2.56;100.00;94766.69;5056709;28;20234;-73
2022/12/14 05:50:51;;;;;;;22.00;9.07;;;;;;;-2.67;100.00;94751.31;5057294;28;21146;-73
2022/12/14 05:53:18;;;;;;;24.10;9.73;;;;;;;-2.58;100.00;94746.19;5057270;28;20261;-71
2022/12/14 05:55:48;;;;;;;18.63;8.27;;;;;;;-2.62;100.00;94744.00;5056251;28;20211;-71
2022/12/14 05:58:15;;;;;;;25.13;9.27;;;;;;;-2.60;100.00;94735.19;5057816;28;20238;-73
2022/12/14 06:00:41;;;;;;;26.70;10.07;;;;;;;-2.58;100.00;94727.31;5056730;28;20313;-72
2022/12/14 06:03:08;;;;;;;19.00;8.90;;;;;;;-2.58;100.00;94723.00;5056863;28;20196;-72
2022/12/14 06:05:35;;;;;;;21.23;8.27;;;;;;;-2.50;100.00;94724.91;5056005;28;20384;-72
2022/12/14 06:08:01;;;;;;;26.87;9.67;;;;;;;-2.47;100.00;94714.28;5056930;28;20238;-73
2022/12/14 06:10:28;;;;;;;19.47;9.63;;;;;;;-2.47;100.00;94722.03;5056694;28;20227;-73
2022/12/14 06:12:56;;;;;;;16.93;7.90;;;;;;;-2.42;100.00;94727.59;5057107;28;20674;-71
2022/12/14 06:15:23;;;;;;;20.80;9.33;;;;;;;-2.49;100.00;94726.53;5056181;28;20672;-71
2022/12/14 06:17:49;;;;;;;21.83;8.07;;;;;;;-2.52;100.00;94727.63;5056740;28;20222;-72
2022/12/14 06:20:16;;;;;;;21.57;9.33;;;;;;;-2.49;100.00;94726.53;5056500;28;20798;-72
2022/12/14 06:22:42;;;;;;;23.33;8.03;;;;;;;-2.52;100.00;94712.16;5056903;28;20204;-72
2022/12/14 06:25:09;;;;;;;19.57;9.03;;;;;;;-2.50;100.00;94719.75;5055993;28;20218;-71
2022/12/14 06:27:35;;;;;;;21.33;8.97;;;;;;;-2.53;100.00;94710.50;5056752;28;20232;-72
2022/12/14 06:30:04;;;;;;;26.13;9.33;;;;;;;-2.56;100.00;94703.03;5056578;28;21244;-72
2022/12/14 06:32:30;;;;;;;39.92;16.63;;;;;;;-2.75;100.00;94717.69;5054754;28;20448;-72
2022/12/14 06:34:57;;;;;;;24.70;10.03;;;;;;;-2.59;100.00;94717.97;5055817;28;20208;-72
2022/12/14 06:37:23;;;;;;;19.27;8.47;;;;;;;-2.52;100.00;94721.63;5056010;28;20243;-72
2022/12/14 06:39:50;;;;;;;22.73;9.43;;;;;;;-2.64;100.00;94720.13;5057099;28;20231;-72
2022/12/14 06:42:16;;;;;;;22.70;8.70;;;;;;;-2.52;100.00;94711.31;5056158;28;20221;-72
2022/12/14 06:44:43;;;;;;;23.93;8.13;;;;;;;-2.62;100.00;94705.34;5055665;28;20570;-72
2022/12/14 06:47:10;;;;;;;15.80;7.57;;;;;;;-2.48;100.00;94703.19;5056314;28;20234;-71
2022/12/14 06:49:37;;;;;;;20.50;9.03;;;;;;;-2.59;100.00;94700.72;5055773;28;20683;-72
2022/12/14 06:52:04;;;;;;;19.70;8.60;;;;;;;-2.65;100.00;94698.69;5056228;28;20230;-72
2022/12/14 06:54:30;;;;;;;18.07;8.53;;;;;;;-2.51;100.00;94702.63;5056244;28;20201;-71
2022/12/14 06:56:57;;;;;;;15.17;7.43;;;;;;;-2.49;100.00;94691.22;5056117;28;20233;-72
2022/12/14 06:59:23;;;;;;;22.80;8.60;;;;;;;-2.48;100.00;94687.72;5056537;28;20211;-72
2022/12/14 07:01:50;;;;;;;16.67;7.83;;;;;;;-2.43;100.00;94685.53;5056924;28;20211;-72
2022/12/14 07:04:19;;;;;;;18.53;7.80;;;;;;;-2.38;100.00;94678.19;5055403;28;20211;-72
2022/12/14 07:06:46;;;;;;;21.23;9.60;;;;;;;-2.33;100.00;94682.00;5055908;28;20306;-72
2022/12/14 07:09:14;;;;;;;19.70;8.87;;;;;;;-2.26;100.00;94679.66;5057233;28;20208;-71
2022/12/14 07:11:41;;;;;;;24.80;9.07;;;;;;;-2.29;100.00;94678.19;5056477;28;20229;-72
2022/12/14 07:14:12;;;;;;;21.07;8.50;;;;;;;-2.31;100.00;94677.50;5055034;28;20218;-72
2022/12/14 07:16:39;;;;;;;23.13;8.50;;;;;;;-2.31;100.00;94668.94;5057029;28;20322;-72
2022/12/14 07:19:06;;;;;;;27.73;10.23;;;;;;;-2.27;100.00;94678.84;5059962;28;21011;-72
2022/12/14 07:21:34;;;;;;;20.87;8.07;;;;;;;-2.29;100.00;94673.03;5059974;28;20302;-72
2022/12/14 07:24:01;;;;;;;22.13;9.37;;;;;;;-2.24;100.00;94681.16;5059502;28;20942;-72
2022/12/14 07:26:29;;;;;;;25.77;9.00;;;;;;;-2.30;100.00;94671.38;5059637;28;20210;-72
2022/12/14 07:28:59;;;;;;;21.20;8.37;;;;;;;-2.27;100.00;94671.09;5059251;28;20765;-72
2022/12/14 07:31:27;;;;;;;24.00;9.67;;;;;;;-2.31;100.00;94676.69;5059714;28;20318;-72
2022/12/14 07:33:55;;;;;;;20.10;9.60;;;;;;;-2.21;100.00;94680.88;5059272;28;20207;-72
2022/12/14 07:36:23;;;;;;;17.10;8.13;;;;;;;-2.21;100.00;94669.75;5059400;28;20220;-72
2022/12/14 07:38:51;;;;;;;25.87;8.80;;;;;;;-2.03;100.00;94680.97;5059847;28;20210;-72
2022/12/14 07:41:20;;;;;;;27.23;9.67;;;;;;;-2.00;100.00;94673.75;5059379;28;20210;-72
2022/12/14 07:43:47;;;;;;;19.67;8.83;;;;;;;-2.24;100.00;94659.69;5058090;28;20207;-72
2022/12/14 07:46:16;;;;;;;18.70;9.23;;;;;;;-2.15;100.00;94664.00;5059495;28;20296;-72
2022/12/14 07:48:44;;;;;;;22.03;8.50;;;;;;;-2.10;100.00;94661.84;5059815;28;20203;-72
2022/12/14 07:51:12;;;;;;;20.83;10.17;;;;;;;-2.05;100.00;94665.66;5059263;28;20605;-72
2022/12/14 07:53:39;;;;;;;21.63;8.63;;;;;;;-2.06;100.00;94665.75;5058694;28;20218;-72
2022/12/14 07:56:10;;;;;;;22.50;9.40;;;;;;;-1.91;100.00;94661.78;5059479;28;20211;-72
2022/12/14 07:58:37;;;;;;;23.17;9.30;;;;;;;-2.28;100.00;94651.44;5058789;28;21163;-72
2022/12/14 08:01:10;;;;;;;18.57;8.93;;;;;;;-2.07;100.00;94646.91;5059196;28;20195;-72
2022/12/14 08:03:37;;;;;;;21.67;9.73;;;;;;;-2.11;100.00;94637.00;5058465;28;20268;-72
2022/12/14 08:06:05;;;;;;;16.17;7.47;;;;;;;-2.11;100.00;94624.91;5059279;28;21326;-72
2022/12/14 08:08:31;;;;;;;38.43;9.93;;;;;;;-2.00;100.00;94632.47;5057888;28;20245;-71
2022/12/14 08:10:58;;;;;;;22.93;9.77;;;;;;;-1.97;100.00;94627.03;5058925;28;20230;-72
2022/12/14 08:13:26;;;;;;;26.90;8.87;;;;;;;-1.82;100.00;94638.50;5058651;28;20222;-72
2022/12/14 08:15:53;;;;;;;20.97;9.07;;;;;;;-1.85;100.00;94638.81;5057894;28;20203;-72
2022/12/14 08:18:19;;;;;;;18.20;8.70;;;;;;;-1.74;100.00;94639.44;5058033;28;20221;-72
2022/12/14 08:20:49;;;;;;;20.13;10.17;;;;;;;-1.67;100.00;94625.03;5058665;28;20203;-71
2022/12/14 08:23:15;;;;;;;27.20;10.13;;;;;;;-1.75;100.00;94613.78;5057862;28;20607;-71
2022/12/14 08:25:42;;;;;;;24.10;10.27;;;;;;;-1.73;100.00;94615.25;5057811;28;20574;-71
2022/12/14 08:28:08;;;;;;;20.93;10.17;;;;;;;-1.74;100.00;94628.31;5058293;28;20392;-71
2022/12/14 08:30:38;;;;;;;21.87;8.33;;;;;;;-1.66;100.00;94628.41;5058094;28;20652;-72
2022/12/14 08:33:05;;;;;;;22.27;9.93;;;;;;;-1.72;100.00;94622.06;5057953;28;20259;-71
2022/12/14 08:35:32;;;;;;;20.57;9.00;;;;;;;-1.65;100.00;94617.94;5057273;28;20206;-71
2022/12/14 08:37:58;;;;;;;24.57;10.70;;;;;;;-1.74;100.00;94617.97;5057536;28;20900;-72
2022/12/14 08:40:25;;;;;;;31.63;8.33;;;;;;;-1.84;100.00;94612.03;5057518;28;20205;-71
2022/12/14 08:42:52;;;;;;;21.07;8.47;;;;;;;-1.75;100.00;94608.59;5057863;28;20624;-71
2022/12/14 08:45:18;;;;;;;24.70;10.07;;;;;;;-1.64;100.00;94608.44;5056944;28;20578;-70
2022/12/14 08:47:46;;;;;;;26.30;10.43;;;;;;;-1.55;100.00;94615.31;5057392;28;20270;-71
2022/12/14 08:50:13;;;;;;;32.87;10.30;;;;;;;-1.68;100.00;94617.38;5057838;28;20211;-71
2022/12/14 08:52:39;;;;;;;23.03;9.57;;;;;;;-1.72;100.00;94616.88;5057757;28;20734;-71
2022/12/14 08:55:07;;;;;;;27.50;10.77;;;;;;;-1.71;100.00;94620.28;5056260;28;20205;-71
2022/12/14 08:57:33;;;;;;;21.67;10.73;;;;;;;-1.71;100.00;94617.69;5057439;28;20230;-70
2022/12/14 09:00:00;;;;;;;27.80;9.23;;;;;;;-1.75;100.00;94611.19;5057755;28;20208;-71
2022/12/14 09:02:27;;;;;;;22.80;8.90;;;;;;;-1.77;100.00;94601.00;5056785;28;20201;-71
2022/12/14 09:04:55;;;;;;;24.73;8.83;;;;;;;-1.56;100.00;94611.09;5056009;28;20795;-73
2022/12/14 09:07:21;;;;;;;26.87;11.07;;;;;;;-1.47;100.00;94605.06;5057926;28;20234;-72
2022/12/14 09:09:48;;;;;;;26.00;10.23;;;;;;;-1.63;100.00;94607.44;5058298;28;20207;-72
2022/12/14 09:12:14;;;;;;;20.53;8.80;;;;;;;-1.47;100.00;94605.88;5057865;28;20239;-70
2022/12/14 09:14:45;;;;;;;21.53;10.20;;;;;;;-1.68;100.00;94609.66;5056976;28;20224;-70
2022/12/14 09:17:12;;;;;;;24.77;10.83;;;;;;;-1.37;100.00;94605.81;5057443;28;20227;-73
2022/12/14 09:19:39;;;;;;;33.77;11.43;;;;;;;-1.32;100.00;94594.09;5057740;28;20213;-70
2022/12/14 09:22:07;;;;;;;24.70;10.40;;;;;;;-1.26;100.00;94595.28;5058092;28;20204;-70
2022/12/14 09:24:33;;;;;;;22.30;10.30;;;;;;;-1.15;100.00;94591.50;5056772;28;20668;-70
2022/12/14 09:27:00;;;;;;;30.33;10.27;;;;;;;-1.05;100.00;94596.63;5057489;28;20239;-70
2022/12/14 09:29:28;;;;;;;26.57;12.13;;;;;;;-1.09;100.00;94597.88;5057245;28;20204;-70
2022/12/14 09:31:54;;;;;;;25.60;10.73;;;;;;;-0.96;100.00;94591.34;5057639;28;20223;-70
2022/12/14 09:34:22;;;;;;;26.43;10.43;;;;;;;-0.82;100.00;94582.28;5057103;28;20216;-70
2022/12/14 09:36:48;;;;;;;27.90;10.73;;;;;;;-0.83;100.00;94580.66;5057172;28;20352;-70
2022/12/14 09:39:16;;;;;;;28.30;12.10;;;;;;;-0.80;100.00;94576.00;5057014;28;20209;-70
2022/12/14 09:42:01;;;;;;;24.17;10.53;;;;;;;-0.81;100.00;94574.38;5057593;28;20675;-70
2022/12/14 09:44:40;;;;;;;24.60;10.77;;;;;;;-0.91;100.00;94562.50;5056177;28;20207;-70
2022/12/14 09:47:13;;;;;;;28.07;10.53;;;;;;;-0.74;100.00;94557.28;5057099;28;20443;-70
2022/12/14 09:49:43;;;;;;;32.63;12.07;;;;;;;-0.66;100.00;94549.59;5057168;28;20656;-70
2022/12/14 09:52:15;;;;;;;27.20;11.43;;;;;;;-0.61;100.00;94553.34;5058537;28;20238;-70
2022/12/14 09:54:46;;;;;;;25.17;10.57;;;;;;;-0.50;100.00;94544.53;5057104;28;20261;-70
2022/12/14 09:57:21;;;;;;;35.13;12.00;;;;;;;-0.52;100.00;94538.72;5057288;28;20838;-70
2022/12/14 09:59:47;;;;;;;31.30;11.70;;;;;;;-0.57;100.00;94535.78;5057490;28;20208;-70
2022/12/14 10:02:37;;;;;;;31.80;11.93;;;;;;;-0.43;100.00;94538.59;5057535;28;20222;-70
2022/12/14 10:05:19;;;;;;;31.23;11.43;;;;;;;-0.40;100.00;94534.91;5056553;28;20683;-70
2022/12/14 10:07:58;;;;;;;34.10;12.43;;;;;;;-0.49;100.00;94535.81;5056684;28;20626;-70
2022/12/14 10:10:31;;;;;;;29.63;11.33;;;;;;;-0.37;100.00;94534.59;5057133;28;20208;-70
2022/12/14 10:13:06;;;;;;;26.63;11.00;;;;;;;-0.21;100.00;94537.28;5056456;28;20219;-70
2022/12/14 10:15:40;;;;;;;22.37;10.03;;;;;;;-0.18;100.00;94536.97;5056190;28;20235;-71
2022/12/14 10:18:23;;;;;;;34.33;11.50;;;;;;;-0.36;100.00;94529.25;5056884;28;20232;-70
2022/12/14 10:20:58;;;;;;;27.40;11.30;;;;;;;-0.47;100.00;94537.28;5056748;28;20212;-70
2022/12/14 10:23:26;;;;;;;39.30;12.57;;;;;;;-0.40;100.00;94542.66;5056554;28;20212;-70
2022/12/14 10:26:01;;;;;;;27.67;10.93;;;;;;;-0.51;100.00;94530.81;5056606;28;20208;-70
2022/12/14 10:28:41;;;;;;;24.00;10.00;;;;;;;-0.32;100.00;94527.19;5056368;28;20219;-70
2022/12/14 10:31:11;;;;;;;31.37;12.30;;;;;;;-0.25;100.00;94521.25;5056833;28;20228;-72
2022/12/14 10:33:43;;;;;;;35.37;13.77;;;;;;;-0.30;100.00;94501.97;5056198;28;20735;-69
2022/12/14 10:36:18;;;;;;;30.47;12.67;;;;;;;-0.18;100.00;94513.66;5055419;28;20679;-69
2022/12/14 10:38:51;;;;;;;33.97;12.13;;;;;;;-0.19;100.00;94505.09;5056976;28;20218;-68
2022/12/14 10:41:25;;;;;;;39.67;13.87;;;;;;;-0.17;100.00;94513.50;5057097;28;20575;-69
2022/12/14 10:43:57;;;;;;;34.00;11.13;;;;;;;-0.12;100.00;94510.47;5055500;28;20204;-68
2022/12/14 10:46:41;;;;;;;29.43;11.50;;;;;;;-0.15;100.00;94514.19;5056210;28;20200;-69
2022/12/14 10:49:16;;;;;;;30.10;11.77;;;;;;;-0.22;100.00;94512.38;5057432;28;20210;-68
2022/12/14 10:51:47;;;;;;;28.60;13.37;;;;;;;-0.18;100.00;94505.91;5059137;28;20227;-69
2022/12/14 10:54:25;;;;;;;32.70;11.87;;;;;;;-0.08;100.00;94502.22;5060081;28;20214;-70
2022/12/14 10:56:53;;;;;;;30.23;12.33;;;;;;;-0.17;100.00;94497.19;5061053;28;20243;-69
2022/12/14 10:59:44;;;;;;;34.30;12.90;;;;;;;-0.10;100.00;94486.06;5061665;28;20208;-70
2022/12/14 11:02:15;;;;;;;25.83;11.50;;;;;;;-0.02;100.00;94498.22;5046599;28;20211;-70
2022/12/14 11:04:48;;;;;;;24.20;10.57;;;;;;;0.06;100.00;94494.69;5062036;28;20208;-69
2022/12/14 11:07:17;;;;;;;28.70;11.00;;;;;;;0.10;100.00;94484.81;5060334;28;21005;-68
2022/12/14 11:09:44;;;;;;;37.27;13.27;;;;;;;0.02;100.00;94482.22;5060358;28;20273;-68
2022/12/14 11:12:20;;;;;;;35.07;11.53;;;;;;;0.15;100.00;94478.22;5060410;28;20246;-68
2022/12/14 11:14:54;;;;;;;24.93;10.77;;;;;;;0.13;100.00;94479.34;5059535;28;20206;-69
2022/12/14 11:17:35;;;;;;;30.20;10.63;;;;;;;0.20;100.00;94475.16;5059921;28;20294;-68
2022/12/14 11:20:20;;;;;;;31.83;11.17;;;;;;;-0.02;100.00;94473.16;5060611;28;20204;-69
2022/12/14 11:22:49;;;;;;;38.43;13.30;;;;;;;0.07;100.00;94465.22;5059992;28;20613;-69
2022/12/14 11:25:31;;;;;;;26.27;11.00;;;;;;;0.20;100.00;94469.97;5059127;28;20208;-69
2022/12/14 11:28:02;;;;;;;28.27;13.03;;;;;;;0.21;100.00;94462.03;5059527;28;20227;-69
2022/12/14 11:30:29;;;;;;;25.63;12.53;;;;;;;-0.11;100.00;94463.72;5059518;28;20220;-69
2022/12/14 11:32:55;;;;;;;33.40;12.20;;;;;;;0.06;100.00;94455.88;5060733;28;20224;-69
2022/12/14 11:35:22;;;;;;;30.93;12.27;;;;;;;0.13;100.00;94458.63;5059140;28;20205;-69
2022/12/14 11:37:50;;;;;;;36.07;13.50;;;;;;;-0.03;100.00;94462.94;5059866;28;20228;-69
2022/12/14 11:40:22;;;;;;;33.17;12.53;;;;;;;0.11;100.00;94460.56;5059801;28;20197;-69
2022/12/14 11:42:50;;;;;;;31.40;11.97;;;;;;;0.17;100.00;94462.53;5059638;28;20201;-69
2022/12/14 11:45:30;;;;;;;29.90;12.20;;;;;;;0.27;100.00;94450.25;5058700;28;20213;-69